QTR295 EDDF-EGKK
Flight info
| Callsign | QTR295 |
|---|---|
| Flight time | 1h 3m |
| Altitude | 36000 |
| Route | OBOKA5G/25C OBOKA Z29 TORNU DCT BREDA DCT VICOT DCT GALSO Q63 ARREK Y4 TEBRA DCT ABTUM DCT ARNUN DCT LARCK |
| Aircraft | A35K/H-SDE2E3GHIJ3J4J5LM1ORWXY/LB1D1 |
Departure
| Time | 2026-05-06 09:48 |
|---|---|
| Airport | Frankfurt Main Airport (EDDF) |
Arrival
| Time | 2026-05-06 10:51 |
|---|---|
| Airport | London Gatwick Airport (EGKK) |
| Time | Latitude | Longitude | Altitude | Speed | Heading |
|---|---|---|---|---|---|
| 2026-05-06 09:26 | 50.04963 | 8.57676 | 368 ft | 0 kts | 23° |
| 2026-05-06 09:42 | 50.04950 | 8.57667 | 370 ft | 3 kts | 39° |
| 2026-05-06 09:43 | 50.04938 | 8.57647 | 368 ft | 3 kts | 72° |
| 2026-05-06 09:43 | 50.04936 | 8.57619 | 367 ft | 3 kts | 104° |
| 2026-05-06 09:43 | 50.04936 | 8.57613 | 367 ft | 2 kts | 113° |
| 2026-05-06 09:43 | 50.04933 | 8.57618 | 367 ft | 1 kts | 125° |
| 2026-05-06 09:44 | 50.04933 | 8.57619 | 367 ft | 0 kts | 126° |
| 2026-05-06 09:44 | 50.04932 | 8.57622 | 367 ft | 2 kts | 126° |
| 2026-05-06 09:44 | 50.04904 | 8.57673 | 372 ft | 10 kts | 127° |
| 2026-05-06 09:44 | 50.04858 | 8.57800 | 372 ft | 13 kts | 117° |
| 2026-05-06 09:45 | 50.04778 | 8.57915 | 373 ft | 19 kts | 155° |
| 2026-05-06 09:45 | 50.04662 | 8.57985 | 374 ft | 15 kts | 159° |
| 2026-05-06 09:45 | 50.04596 | 8.58030 | 375 ft | 9 kts | 142° |
| 2026-05-06 09:45 | 50.04580 | 8.58149 | 373 ft | 14 kts | 79° |
| 2026-05-06 09:46 | 50.04615 | 8.58328 | 373 ft | 21 kts | 69° |
| 2026-05-06 09:46 | 50.04646 | 8.58479 | 371 ft | 15 kts | 89° |
| 2026-05-06 09:46 | 50.04642 | 8.58516 | 373 ft | 0 kts | 105° |
| 2026-05-06 09:46 | 50.04628 | 8.58547 | 374 ft | 7 kts | 131° |
| 2026-05-06 09:47 | 50.04569 | 8.58598 | 376 ft | 12 kts | 160° |
| 2026-05-06 09:47 | 50.04488 | 8.58566 | 376 ft | 15 kts | 233° |
| 2026-05-06 09:47 | 50.04465 | 8.58492 | 372 ft | 26 kts | 248° |
| 2026-05-06 09:47 | 50.04288 | 8.57761 | 371 ft | 115 kts | 251° |
| 2026-05-06 09:48 | 50.03916 | 8.56230 | 415 ft | 180 kts | 245° |
| 2026-05-06 09:48 | 50.03466 | 8.54373 | 1269 ft | 187 kts | 251° |
| 2026-05-06 09:48 | 50.03026 | 8.52511 | 2169 ft | 183 kts | 250° |
| 2026-05-06 09:48 | 50.02714 | 8.50490 | 2581 ft | 201 kts | 268° |
| 2026-05-06 09:49 | 50.02772 | 8.48207 | 3049 ft | 220 kts | 276° |
| 2026-05-06 09:49 | 50.02932 | 8.45800 | 3730 ft | 227 kts | 275° |
| 2026-05-06 09:49 | 50.02885 | 8.43324 | 4415 ft | 235 kts | 263° |
| 2026-05-06 09:49 | 50.02614 | 8.40687 | 4826 ft | 256 kts | 259° |
| 2026-05-06 09:50 | 50.02276 | 8.37905 | 5189 ft | 266 kts | 259° |
| 2026-05-06 09:50 | 50.01926 | 8.35049 | 5848 ft | 270 kts | 259° |
| 2026-05-06 09:50 | 50.01578 | 8.32179 | 6683 ft | 271 kts | 259° |
| 2026-05-06 09:50 | 50.01332 | 8.29263 | 7446 ft | 274 kts | 269° |
| 2026-05-06 09:51 | 50.01681 | 8.26360 | 8191 ft | 276 kts | 290° |
| 2026-05-06 09:51 | 50.02443 | 8.23595 | 8977 ft | 280 kts | 295° |
| 2026-05-06 09:51 | 50.03269 | 8.20840 | 9728 ft | 283 kts | 295° |
| 2026-05-06 09:51 | 50.04103 | 8.18040 | 10376 ft | 291 kts | 294° |
| 2026-05-06 09:52 | 50.04974 | 8.15085 | 10680 ft | 310 kts | 294° |
| 2026-05-06 09:52 | 50.05988 | 8.11999 | 10949 ft | 330 kts | 302° |
| 2026-05-06 09:52 | 50.07378 | 8.09045 | 11225 ft | 347 kts | 308° |
| 2026-05-06 09:52 | 50.08928 | 8.06056 | 11524 ft | 361 kts | 309° |
| 2026-05-06 09:53 | 50.10526 | 8.02991 | 12034 ft | 367 kts | 309° |
| 2026-05-06 09:53 | 50.12135 | 7.99889 | 12644 ft | 370 kts | 308° |
| 2026-05-06 09:53 | 50.13756 | 7.96747 | 13236 ft | 374 kts | 308° |
| 2026-05-06 09:53 | 50.15393 | 7.93568 | 13786 ft | 377 kts | 308° |
| 2026-05-06 09:54 | 50.17038 | 7.90364 | 14346 ft | 380 kts | 308° |
| 2026-05-06 09:54 | 50.18698 | 7.87125 | 14930 ft | 383 kts | 308° |
| 2026-05-06 09:54 | 50.20346 | 7.83903 | 15487 ft | 386 kts | 308° |
| 2026-05-06 09:54 | 50.21804 | 7.81049 | 15967 ft | 389 kts | 308° |
| 2026-05-06 09:55 | 50.23453 | 7.77820 | 16492 ft | 392 kts | 308° |
| 2026-05-06 09:55 | 50.25332 | 7.74703 | 17012 ft | 396 kts | 319° |
| 2026-05-06 09:55 | 50.27639 | 7.72342 | 17529 ft | 399 kts | 333° |
| 2026-05-06 09:55 | 50.30171 | 7.70522 | 18031 ft | 402 kts | 336° |
| 2026-05-06 09:56 | 50.31913 | 7.69344 | 18368 ft | 404 kts | 336° |
| 2026-05-06 09:56 | 50.34506 | 7.67596 | 18872 ft | 407 kts | 336° |
| 2026-05-06 09:56 | 50.37960 | 7.65249 | 19526 ft | 411 kts | 336° |
| 2026-05-06 09:56 | 50.40593 | 7.63448 | 19988 ft | 414 kts | 336° |
| 2026-05-06 09:57 | 50.43234 | 7.61637 | 20452 ft | 416 kts | 336° |
| 2026-05-06 09:57 | 50.45897 | 7.59808 | 20887 ft | 419 kts | 336° |
| 2026-05-06 09:57 | 50.47675 | 7.58584 | 21155 ft | 421 kts | 336° |
| 2026-05-06 09:57 | 50.50401 | 7.56704 | 21600 ft | 424 kts | 336° |
| 2026-05-06 09:58 | 50.53993 | 7.54220 | 22141 ft | 428 kts | 336° |
| 2026-05-06 09:58 | 50.56643 | 7.52071 | 22519 ft | 430 kts | 329° |
| 2026-05-06 09:58 | 50.59183 | 7.49560 | 22899 ft | 433 kts | 327° |
| 2026-05-06 09:58 | 50.61711 | 7.46968 | 23299 ft | 435 kts | 327° |
| 2026-05-06 09:59 | 50.64250 | 7.44356 | 23689 ft | 437 kts | 327° |
| 2026-05-06 09:59 | 50.66806 | 7.41727 | 24051 ft | 440 kts | 327° |
| 2026-05-06 09:59 | 50.69374 | 7.39085 | 24408 ft | 442 kts | 327° |
| 2026-05-06 09:59 | 50.71902 | 7.36299 | 24773 ft | 445 kts | 321° |
| 2026-05-06 10:00 | 50.74160 | 7.32959 | 25106 ft | 446 kts | 311° |
| 2026-05-06 10:00 | 50.76007 | 7.29014 | 25461 ft | 448 kts | 301° |
| 2026-05-06 10:00 | 50.77569 | 7.24737 | 25826 ft | 450 kts | 298° |
| 2026-05-06 10:00 | 50.79034 | 7.20349 | 26188 ft | 453 kts | 297° |
| 2026-05-06 10:01 | 50.80458 | 7.15893 | 26545 ft | 455 kts | 296° |
| 2026-05-06 10:01 | 50.81872 | 7.11406 | 26907 ft | 457 kts | 296° |
| 2026-05-06 10:01 | 50.83296 | 7.06897 | 27270 ft | 460 kts | 296° |
| 2026-05-06 10:01 | 50.84737 | 7.02362 | 27656 ft | 463 kts | 296° |
| 2026-05-06 10:02 | 50.86195 | 6.97804 | 28032 ft | 465 kts | 297° |
| 2026-05-06 10:02 | 50.87668 | 6.93227 | 28403 ft | 468 kts | 297° |
| 2026-05-06 10:02 | 50.89130 | 6.88687 | 28763 ft | 470 kts | 297° |
| 2026-05-06 10:02 | 50.90638 | 6.83995 | 29150 ft | 473 kts | 297° |
| 2026-05-06 10:03 | 50.92132 | 6.79335 | 29513 ft | 476 kts | 297° |
| 2026-05-06 10:03 | 50.93633 | 6.74646 | 29867 ft | 479 kts | 297° |
| 2026-05-06 10:03 | 50.95143 | 6.69921 | 30219 ft | 481 kts | 296° |
| 2026-05-06 10:03 | 50.96638 | 6.65229 | 30571 ft | 484 kts | 296° |
| 2026-05-06 10:04 | 50.98157 | 6.60456 | 30926 ft | 487 kts | 296° |
| 2026-05-06 10:04 | 50.99684 | 6.55646 | 31282 ft | 489 kts | 296° |
| 2026-05-06 10:04 | 51.01217 | 6.50809 | 31628 ft | 492 kts | 296° |
| 2026-05-06 10:04 | 51.02755 | 6.45947 | 31956 ft | 494 kts | 296° |
| 2026-05-06 10:05 | 51.04296 | 6.41065 | 32368 ft | 494 kts | 296° |
| 2026-05-06 10:05 | 51.05830 | 6.36196 | 32856 ft | 492 kts | 296° |
| 2026-05-06 10:05 | 51.07359 | 6.31333 | 33303 ft | 491 kts | 296° |
| 2026-05-06 10:05 | 51.08880 | 6.26486 | 33731 ft | 490 kts | 296° |
| 2026-05-06 10:06 | 51.10401 | 6.21629 | 33972 ft | 491 kts | 296° |
| 2026-05-06 10:06 | 51.11921 | 6.16768 | 34001 ft | 490 kts | 296° |
| 2026-05-06 10:06 | 51.14487 | 6.06733 | 34003 ft | 490 kts | 286° |
| 2026-05-06 10:07 | 51.16012 | 5.98032 | 34000 ft | 491 kts | 284° |
| 2026-05-06 10:07 | 51.17755 | 5.87526 | 33998 ft | 491 kts | 287° |
| 2026-05-06 10:08 | 51.20607 | 5.77675 | 33999 ft | 490 kts | 300° |
| 2026-05-06 10:08 | 51.24131 | 5.68359 | 34000 ft | 491 kts | 302° |
| 2026-05-06 10:09 | 51.27762 | 5.59116 | 34000 ft | 491 kts | 302° |
| 2026-05-06 10:09 | 51.31382 | 5.49862 | 33999 ft | 491 kts | 302° |
| 2026-05-06 10:10 | 51.34979 | 5.40575 | 34000 ft | 491 kts | 301° |
| 2026-05-06 10:10 | 51.38556 | 5.31280 | 34000 ft | 491 kts | 301° |
| 2026-05-06 10:11 | 51.42127 | 5.21959 | 34000 ft | 491 kts | 301° |
| 2026-05-06 10:11 | 51.45692 | 5.12626 | 33999 ft | 491 kts | 301° |
| 2026-05-06 10:12 | 51.49247 | 5.03285 | 34000 ft | 491 kts | 301° |
| 2026-05-06 10:12 | 51.52701 | 4.93916 | 33998 ft | 491 kts | 296° |
| 2026-05-06 10:13 | 51.54845 | 4.83563 | 34000 ft | 490 kts | 279° |
| 2026-05-06 10:13 | 51.54868 | 4.72670 | 33999 ft | 490 kts | 263° |
| 2026-05-06 10:14 | 51.53898 | 4.61831 | 34000 ft | 490 kts | 261° |
| 2026-05-06 10:14 | 51.52788 | 4.51023 | 34000 ft | 490 kts | 261° |
| 2026-05-06 10:15 | 51.51691 | 4.40216 | 34000 ft | 490 kts | 261° |
| 2026-05-06 10:15 | 51.50613 | 4.29408 | 34001 ft | 490 kts | 261° |
| 2026-05-06 10:16 | 51.49536 | 4.18600 | 33999 ft | 490 kts | 261° |
| 2026-05-06 10:16 | 51.49043 | 4.07711 | 34001 ft | 490 kts | 274° |
| 2026-05-06 10:17 | 51.50537 | 3.97099 | 34003 ft | 490 kts | 292° |
| 2026-05-06 10:17 | 51.53274 | 3.87073 | 34001 ft | 490 kts | 295° |
| 2026-05-06 10:18 | 51.56188 | 3.77166 | 34000 ft | 491 kts | 295° |
| 2026-05-06 10:18 | 51.59090 | 3.67241 | 34000 ft | 491 kts | 295° |
| 2026-05-06 10:19 | 51.61955 | 3.57278 | 34000 ft | 491 kts | 294° |
| 2026-05-06 10:19 | 51.64796 | 3.47299 | 33999 ft | 491 kts | 294° |
| 2026-05-06 10:20 | 51.67626 | 3.37307 | 34000 ft | 491 kts | 294° |
| 2026-05-06 10:20 | 51.70448 | 3.27302 | 33800 ft | 489 kts | 294° |
| 2026-05-06 10:21 | 51.71662 | 3.22179 | 32961 ft | 490 kts | 287° |
| 2026-05-06 10:21 | 51.72419 | 3.16802 | 31961 ft | 494 kts | 278° |
| 2026-05-06 10:21 | 51.72628 | 3.11248 | 30956 ft | 498 kts | 268° |
| 2026-05-06 10:21 | 51.72354 | 3.05696 | 30010 ft | 500 kts | 264° |
| 2026-05-06 10:22 | 51.71925 | 3.00151 | 29360 ft | 495 kts | 262° |
| 2026-05-06 10:22 | 51.71441 | 2.94724 | 29067 ft | 484 kts | 262° |
| 2026-05-06 10:22 | 51.70441 | 2.84010 | 28998 ft | 484 kts | 261° |
| 2026-05-06 10:23 | 51.69457 | 2.73279 | 29000 ft | 484 kts | 262° |
| 2026-05-06 10:23 | 51.68491 | 2.62528 | 29000 ft | 484 kts | 262° |
| 2026-05-06 10:24 | 51.67529 | 2.51793 | 28999 ft | 484 kts | 262° |
| 2026-05-06 10:24 | 51.66558 | 2.41062 | 29003 ft | 484 kts | 262° |
| 2026-05-06 10:25 | 51.65568 | 2.30346 | 28999 ft | 484 kts | 261° |
| 2026-05-06 10:25 | 51.64563 | 2.19581 | 28656 ft | 489 kts | 261° |
| 2026-05-06 10:26 | 51.64054 | 2.14162 | 27914 ft | 489 kts | 261° |
| 2026-05-06 10:26 | 51.63552 | 2.08828 | 27069 ft | 488 kts | 261° |
| 2026-05-06 10:26 | 51.63044 | 2.03369 | 26295 ft | 485 kts | 261° |
| 2026-05-06 10:26 | 51.62555 | 1.98088 | 25597 ft | 481 kts | 262° |
| 2026-05-06 10:27 | 51.62065 | 1.92790 | 24916 ft | 476 kts | 261° |
| 2026-05-06 10:27 | 51.61421 | 1.87594 | 24215 ft | 472 kts | 253° |
| 2026-05-06 10:27 | 51.60191 | 1.82737 | 23518 ft | 467 kts | 241° |
| 2026-05-06 10:27 | 51.58363 | 1.78374 | 22833 ft | 462 kts | 233° |
| 2026-05-06 10:28 | 51.56386 | 1.74425 | 22268 ft | 455 kts | 230° |
| 2026-05-06 10:28 | 51.54323 | 1.70636 | 21867 ft | 445 kts | 228° |
| 2026-05-06 10:28 | 51.52263 | 1.66992 | 21635 ft | 440 kts | 227° |
| 2026-05-06 10:28 | 51.50264 | 1.63273 | 21372 ft | 440 kts | 233° |
| 2026-05-06 10:29 | 51.48652 | 1.59113 | 21117 ft | 438 kts | 244° |
| 2026-05-06 10:29 | 51.47377 | 1.54685 | 20869 ft | 437 kts | 247° |
| 2026-05-06 10:29 | 51.46249 | 1.50180 | 20621 ft | 435 kts | 249° |
| 2026-05-06 10:29 | 51.45199 | 1.45641 | 20359 ft | 433 kts | 250° |
| 2026-05-06 10:30 | 51.44040 | 1.41189 | 20100 ft | 432 kts | 243° |
| 2026-05-06 10:30 | 51.42405 | 1.37181 | 19864 ft | 430 kts | 230° |
| 2026-05-06 10:30 | 51.40294 | 1.33795 | 19626 ft | 429 kts | 221° |
| 2026-05-06 10:30 | 51.38001 | 1.30750 | 19365 ft | 428 kts | 218° |
| 2026-05-06 10:31 | 51.35628 | 1.27890 | 19120 ft | 426 kts | 216° |
| 2026-05-06 10:31 | 51.33220 | 1.25116 | 18871 ft | 425 kts | 216° |
| 2026-05-06 10:31 | 51.30819 | 1.22381 | 18620 ft | 423 kts | 216° |
| 2026-05-06 10:31 | 51.28429 | 1.19645 | 18370 ft | 422 kts | 216° |
| 2026-05-06 10:32 | 51.26058 | 1.16909 | 18121 ft | 420 kts | 216° |
| 2026-05-06 10:32 | 51.23697 | 1.14162 | 17881 ft | 419 kts | 216° |
| 2026-05-06 10:32 | 51.21350 | 1.11416 | 17397 ft | 417 kts | 216° |
| 2026-05-06 10:32 | 51.19022 | 1.08688 | 16901 ft | 414 kts | 217° |
| 2026-05-06 10:33 | 51.16707 | 1.05973 | 16403 ft | 412 kts | 217° |
| 2026-05-06 10:33 | 51.14410 | 1.03272 | 15885 ft | 409 kts | 217° |
| 2026-05-06 10:33 | 51.12305 | 1.00265 | 15392 ft | 406 kts | 227° |
| 2026-05-06 10:33 | 51.10675 | 0.96639 | 14894 ft | 402 kts | 242° |
| 2026-05-06 10:34 | 51.09566 | 0.92585 | 14399 ft | 398 kts | 249° |
| 2026-05-06 10:34 | 51.08625 | 0.88520 | 13909 ft | 396 kts | 250° |
| 2026-05-06 10:34 | 51.07703 | 0.84414 | 13411 ft | 391 kts | 250° |
| 2026-05-06 10:34 | 51.06801 | 0.80380 | 12913 ft | 383 kts | 250° |
| 2026-05-06 10:35 | 51.05918 | 0.76430 | 12422 ft | 375 kts | 250° |
| 2026-05-06 10:35 | 51.05053 | 0.72561 | 11928 ft | 368 kts | 250° |
| 2026-05-06 10:35 | 51.04203 | 0.68771 | 11407 ft | 362 kts | 250° |
| 2026-05-06 10:35 | 51.03358 | 0.65008 | 10616 ft | 363 kts | 250° |
| 2026-05-06 10:36 | 51.02503 | 0.61208 | 9744 ft | 367 kts | 250° |
| 2026-05-06 10:36 | 51.01643 | 0.57390 | 8871 ft | 368 kts | 250° |
| 2026-05-06 10:36 | 51.00784 | 0.53582 | 8290 ft | 362 kts | 250° |
| 2026-05-06 10:36 | 50.99949 | 0.49891 | 8036 ft | 346 kts | 250° |
| 2026-05-06 10:37 | 50.99164 | 0.46413 | 8010 ft | 324 kts | 250° |
| 2026-05-06 10:37 | 50.98425 | 0.43156 | 8010 ft | 303 kts | 250° |
| 2026-05-06 10:37 | 50.97757 | 0.40107 | 8008 ft | 283 kts | 254° |
| 2026-05-06 10:37 | 50.97550 | 0.37123 | 8011 ft | 264 kts | 272° |
| 2026-05-06 10:38 | 50.97684 | 0.34311 | 8007 ft | 249 kts | 276° |
| 2026-05-06 10:38 | 50.97862 | 0.31601 | 8004 ft | 246 kts | 276° |
| 2026-05-06 10:38 | 50.98045 | 0.28906 | 7999 ft | 246 kts | 276° |
| 2026-05-06 10:38 | 50.98228 | 0.26210 | 8000 ft | 246 kts | 276° |
| 2026-05-06 10:39 | 50.98411 | 0.23516 | 8002 ft | 246 kts | 276° |
| 2026-05-06 10:39 | 50.98594 | 0.20818 | 7999 ft | 246 kts | 276° |
| 2026-05-06 10:39 | 50.98776 | 0.18123 | 8000 ft | 246 kts | 276° |
| 2026-05-06 10:39 | 50.98958 | 0.15429 | 8002 ft | 246 kts | 276° |
| 2026-05-06 10:40 | 50.99140 | 0.12729 | 8002 ft | 246 kts | 276° |
| 2026-05-06 10:40 | 50.99322 | 0.10031 | 8001 ft | 246 kts | 276° |
| 2026-05-06 10:40 | 50.99503 | 0.07336 | 7999 ft | 246 kts | 276° |
| 2026-05-06 10:40 | 50.99684 | 0.04641 | 8002 ft | 246 kts | 276° |
| 2026-05-06 10:41 | 50.99864 | 0.01952 | 7999 ft | 245 kts | 276° |
| 2026-05-06 10:41 | 51.00045 | -0.00749 | 8003 ft | 246 kts | 276° |
| 2026-05-06 10:41 | 51.00176 | -0.03447 | 7971 ft | 243 kts | 272° |
| 2026-05-06 10:41 | 51.00221 | -0.06104 | 7694 ft | 242 kts | 271° |
| 2026-05-06 10:42 | 51.00252 | -0.08765 | 7240 ft | 246 kts | 271° |
| 2026-05-06 10:42 | 51.00282 | -0.11464 | 7028 ft | 242 kts | 271° |
| 2026-05-06 10:42 | 51.00311 | -0.14137 | 7001 ft | 242 kts | 271° |
| 2026-05-06 10:42 | 51.00339 | -0.16810 | 6997 ft | 242 kts | 271° |
| 2026-05-06 10:43 | 51.00367 | -0.19482 | 6949 ft | 240 kts | 271° |
| 2026-05-06 10:43 | 51.00395 | -0.22142 | 6575 ft | 242 kts | 271° |
| 2026-05-06 10:43 | 51.00423 | -0.24844 | 6075 ft | 248 kts | 271° |
| 2026-05-06 10:44 | 51.00481 | -0.30428 | 5067 ft | 257 kts | 271° |
| 2026-05-06 10:44 | 51.00510 | -0.33289 | 4563 ft | 261 kts | 271° |
| 2026-05-06 10:44 | 51.00539 | -0.36189 | 4063 ft | 264 kts | 271° |
| 2026-05-06 10:44 | 51.00568 | -0.39118 | 3560 ft | 266 kts | 271° |
| 2026-05-06 10:45 | 51.00598 | -0.42056 | 3139 ft | 265 kts | 271° |
| 2026-05-06 10:45 | 51.00627 | -0.44918 | 3006 ft | 252 kts | 271° |
| 2026-05-06 10:45 | 51.00894 | -0.47544 | 3003 ft | 233 kts | 293° |
| 2026-05-06 10:45 | 51.01868 | -0.49502 | 3009 ft | 227 kts | 324° |
| 2026-05-06 10:46 | 51.03280 | -0.50619 | 3005 ft | 228 kts | 339° |
| 2026-05-06 10:46 | 51.04776 | -0.51471 | 2995 ft | 229 kts | 340° |
| 2026-05-06 10:46 | 51.06310 | -0.52171 | 2991 ft | 230 kts | 352° |
| 2026-05-06 10:46 | 51.07875 | -0.51817 | 3006 ft | 230 kts | 24° |
| 2026-05-06 10:47 | 51.09145 | -0.50291 | 3005 ft | 230 kts | 47° |
| 2026-05-06 10:47 | 51.10193 | -0.48365 | 3002 ft | 232 kts | 50° |
| 2026-05-06 10:47 | 51.11212 | -0.46371 | 2996 ft | 232 kts | 51° |
| 2026-05-06 10:47 | 51.12209 | -0.44400 | 2995 ft | 222 kts | 51° |
| 2026-05-06 10:48 | 51.12792 | -0.42266 | 3000 ft | 207 kts | 88° |
| 2026-05-06 10:48 | 51.12610 | -0.40028 | 3018 ft | 205 kts | 107° |
| 2026-05-06 10:48 | 51.12154 | -0.37872 | 2906 ft | 204 kts | 110° |
| 2026-05-06 10:48 | 51.11708 | -0.35703 | 2478 ft | 212 kts | 103° |
| 2026-05-06 10:49 | 51.11878 | -0.33386 | 2101 ft | 213 kts | 64° |
| 2026-05-06 10:49 | 51.12503 | -0.31351 | 2098 ft | 195 kts | 64° |
| 2026-05-06 10:49 | 51.13025 | -0.29446 | 1989 ft | 183 kts | 68° |
| 2026-05-06 10:49 | 51.13454 | -0.27523 | 1675 ft | 185 kts | 72° |
| 2026-05-06 10:50 | 51.13807 | -0.25631 | 1454 ft | 171 kts | 73° |
| 2026-05-06 10:50 | 51.14153 | -0.23883 | 1233 ft | 160 kts | 73° |
| 2026-05-06 10:50 | 51.14371 | -0.22169 | 734 ft | 166 kts | 74° |
| 2026-05-06 10:50 | 51.14644 | -0.20308 | 257 ft | 170 kts | 78° |
| 2026-05-06 10:51 | 51.14870 | -0.18601 | 221 ft | 138 kts | 78° |
| 2026-05-06 10:51 | 51.15002 | -0.17669 | 225 ft | 39 kts | 78° |
| 2026-05-06 10:51 | 51.15018 | -0.17562 | 225 ft | 2 kts | 76° |
| 2026-05-06 10:51 | 51.15026 | -0.17516 | 220 ft | 6 kts | 73° |
| 2026-05-06 10:52 | 51.15044 | -0.17425 | 224 ft | 11 kts | 71° |
| 2026-05-06 10:52 | 51.15068 | -0.17342 | 216 ft | 14 kts | 61° |
| 2026-05-06 10:52 | 51.15126 | -0.17238 | 223 ft | 0 kts | 22° |
| 2026-05-06 10:53 | 51.15130 | -0.17236 | 221 ft | 0 kts | 18° |
| 2026-05-06 10:53 | 51.15145 | -0.17235 | 221 ft | 4 kts | 359° |
| 2026-05-06 10:53 | 51.15187 | -0.17263 | 220 ft | 9 kts | 331° |
| 2026-05-06 10:53 | 51.15199 | -0.17274 | 222 ft | 0 kts | 330° |
| 2026-05-06 10:54 | 51.15209 | -0.17283 | 220 ft | 4 kts | 329° |
| 2026-05-06 10:54 | 51.15228 | -0.17302 | 220 ft | 2 kts | 328° |
| 2026-05-06 10:54 | 51.15254 | -0.17327 | 219 ft | 7 kts | 332° |
| 2026-05-06 10:55 | 51.15292 | -0.17349 | 218 ft | 0 kts | 342° |
| 2026-05-06 10:55 | 51.15302 | -0.17354 | 220 ft | 0 kts | 343° |
| 2026-05-06 10:56 | 51.15305 | -0.17355 | 218 ft | 0 kts | 343° |
| 2026-05-06 10:56 | 51.15319 | -0.17357 | 222 ft | 4 kts | 358° |
| 2026-05-06 10:56 | 51.15349 | -0.17332 | 220 ft | 6 kts | 45° |
| 2026-05-06 10:57 | 51.15374 | -0.17256 | 221 ft | 10 kts | 70° |
| 2026-05-06 10:57 | 51.15401 | -0.17147 | 221 ft | 6 kts | 69° |
| 2026-05-06 10:57 | 51.15415 | -0.17067 | 220 ft | 9 kts | 77° |
| 2026-05-06 10:57 | 51.15429 | -0.16969 | 216 ft | 0 kts | 77° |
| 2026-05-06 10:58 | 51.15432 | -0.16948 | 220 ft | 4 kts | 77° |
| 2026-05-06 10:58 | 51.15440 | -0.16900 | 218 ft | 3 kts | 76° |
| 2026-05-06 10:58 | 51.15458 | -0.16857 | 214 ft | 6 kts | 36° |
| 2026-05-06 10:58 | 51.15483 | -0.16851 | 218 ft | 2 kts | 360° |
| 2026-05-06 10:59 | 51.15490 | -0.16851 | 219 ft | 0 kts | 356° |